createdAt,value
2018-12-06T00:01:42.601Z,13.13
2018-12-06T00:04:11.079Z,13.47
2018-12-06T00:06:38.581Z,22.90
2018-12-06T00:09:06.051Z,16.70
2018-12-06T00:11:33.542Z,13.60
2018-12-06T00:14:01.008Z,14.03
2018-12-06T00:16:28.501Z,14.40
2018-12-06T00:19:08.924Z,14.27
2018-12-06T00:21:36.411Z,13.90
2018-12-06T00:24:03.877Z,14.30
2018-12-06T00:26:31.386Z,13.93
2018-12-06T00:28:58.849Z,14.13
2018-12-06T00:31:26.329Z,13.60
2018-12-06T00:33:53.791Z,14.00
2018-12-06T00:36:21.256Z,14.37
2018-12-06T00:38:48.738Z,14.67
2018-12-06T00:41:16.218Z,14.97
2018-12-06T00:43:43.756Z,14.37
2018-12-06T00:46:11.214Z,14.50
2018-12-06T00:48:38.703Z,14.10
2018-12-06T00:51:06.189Z,14.07
2018-12-06T00:53:33.666Z,14.47
2018-12-06T00:56:01.134Z,13.80
2018-12-06T00:58:28.617Z,15.23
2018-12-06T01:00:56.138Z,15.00
2018-12-06T01:03:23.626Z,14.90
2018-12-06T01:05:51.093Z,14.50
2018-12-06T01:08:18.601Z,14.70
2018-12-06T01:10:46.089Z,14.30
2018-12-06T01:13:13.604Z,14.57
2018-12-06T01:15:41.094Z,13.90
2018-12-06T01:18:08.578Z,14.77
2018-12-06T01:20:36.042Z,14.57
2018-12-06T01:23:03.526Z,14.63
2018-12-06T01:25:30.990Z,15.23
2018-12-06T01:27:58.474Z,14.60
2018-12-06T01:30:25.945Z,14.77
2018-12-06T01:32:53.415Z,16.10
2018-12-06T01:35:20.901Z,14.63
2018-12-06T01:37:48.368Z,14.67
2018-12-06T01:40:15.866Z,13.70
2018-12-06T01:42:43.317Z,15.57
2018-12-06T01:45:10.798Z,14.97
2018-12-06T01:47:38.267Z,15.67
2018-12-06T01:50:06.369Z,15.23
2018-12-06T01:52:33.846Z,14.47
2018-12-06T01:57:53.824Z,15.33
2018-12-06T02:00:21.294Z,14.63
2018-12-06T02:02:48.757Z,15.17
2018-12-06T02:05:16.257Z,14.70
2018-12-06T02:07:43.735Z,14.87
2018-12-06T02:10:11.221Z,15.37
2018-12-06T02:12:38.711Z,14.37
2018-12-06T02:15:06.196Z,15.03
2018-12-06T02:17:33.674Z,15.10
2018-12-06T02:20:01.174Z,15.07
2018-12-06T02:22:28.635Z,15.17
2018-12-06T02:24:56.178Z,15.43
2018-12-06T02:27:23.654Z,16.00
2018-12-06T02:29:53.975Z,15.37
2018-12-06T02:32:21.467Z,15.63
2018-12-06T02:34:48.958Z,15.27
2018-12-06T02:37:16.417Z,15.83
2018-12-06T02:39:43.926Z,15.10
2018-12-06T02:42:11.390Z,15.40
2018-12-06T02:44:39.091Z,15.77
2018-12-06T02:47:06.614Z,15.77
2018-12-06T02:49:34.111Z,15.10
2018-12-06T02:52:01.621Z,15.80
2018-12-06T02:54:29.124Z,15.03
2018-12-06T02:56:56.603Z,15.77
2018-12-06T02:59:24.062Z,15.17
2018-12-06T03:01:51.558Z,14.90
2018-12-06T03:04:19.018Z,15.13
2018-12-06T03:06:46.503Z,14.30
2018-12-06T03:09:13.975Z,15.70
2018-12-06T03:11:41.611Z,15.70
2018-12-06T03:14:09.126Z,15.40
2018-12-06T03:16:36.708Z,14.90
2018-12-06T03:19:04.165Z,15.53
2018-12-06T03:21:31.677Z,15.17
2018-12-06T03:23:59.162Z,15.80
2018-12-06T03:26:26.642Z,16.30
2018-12-06T03:28:54.421Z,15.23
2018-12-06T03:31:21.914Z,15.83
2018-12-06T03:33:49.399Z,15.77
2018-12-06T03:36:16.994Z,16.53
2018-12-06T03:38:44.454Z,16.40
2018-12-06T03:41:11.920Z,16.03
2018-12-06T03:43:39.403Z,16.17
2018-12-06T03:46:06.884Z,14.87
2018-12-06T03:48:34.363Z,17.17
2018-12-06T03:51:01.829Z,16.13
2018-12-06T03:53:29.335Z,15.53
2018-12-06T03:55:56.810Z,16.83
2018-12-06T03:58:24.308Z,15.90
2018-12-06T04:00:51.793Z,16.17
2018-12-06T04:03:19.288Z,15.90
2018-12-06T04:05:46.748Z,16.03
2018-12-06T04:08:14.244Z,17.23
2018-12-06T04:10:41.731Z,16.17
2018-12-06T04:13:09.252Z,16.10
2018-12-06T04:15:36.819Z,16.33
2018-12-06T04:18:04.304Z,16.50
2018-12-06T04:20:31.785Z,16.57
2018-12-06T04:22:59.302Z,16.03
2018-12-06T04:25:26.800Z,15.87
2018-12-06T04:27:54.296Z,15.20
2018-12-06T04:30:21.782Z,15.67
2018-12-06T04:32:49.349Z,15.87
2018-12-06T04:35:16.810Z,15.47
2018-12-06T04:37:44.379Z,15.50
2018-12-06T04:40:11.920Z,15.97
2018-12-06T04:42:39.439Z,16.47
2018-12-06T04:45:08.877Z,17.17
2018-12-06T04:47:36.353Z,17.70
2018-12-06T04:50:03.859Z,16.53
2018-12-06T04:52:31.358Z,16.03
2018-12-06T04:54:58.875Z,16.37
2018-12-06T04:57:26.378Z,16.67
2018-12-06T04:59:53.885Z,17.33
2018-12-06T05:02:21.354Z,17.20
2018-12-06T05:04:48.867Z,16.83
2018-12-06T05:07:16.360Z,15.13
2018-12-06T05:09:43.864Z,16.03
2018-12-06T05:12:11.334Z,16.27
2018-12-06T05:14:38.845Z,16.80
2018-12-06T05:17:06.318Z,17.17
2018-12-06T05:19:33.806Z,17.37
2018-12-06T05:22:01.353Z,16.30
2018-12-06T05:24:28.836Z,16.67
2018-12-06T05:26:56.296Z,16.90
2018-12-06T05:29:23.775Z,17.57
2018-12-06T05:31:51.271Z,16.33
2018-12-06T05:34:18.741Z,17.40
2018-12-06T05:36:46.219Z,16.63
2018-12-06T05:39:13.717Z,16.13
2018-12-06T05:41:41.307Z,16.57
2018-12-06T05:44:08.775Z,18.17
2018-12-06T05:46:36.243Z,17.27
2018-12-06T05:49:03.703Z,17.43
2018-12-06T05:51:31.189Z,18.23
2018-12-06T05:53:58.659Z,18.70
2018-12-06T05:56:26.210Z,17.27
2018-12-06T05:58:53.722Z,18.07
2018-12-06T06:01:21.215Z,18.70
2018-12-06T06:03:48.676Z,18.70
2018-12-06T06:06:16.168Z,18.00
2018-12-06T06:08:43.654Z,16.63
2018-12-06T06:11:11.146Z,17.73
2018-12-06T06:13:38.615Z,17.20
2018-12-06T06:16:06.099Z,19.07
2018-12-06T06:18:33.584Z,18.93
2018-12-06T06:21:01.086Z,17.87
2018-12-06T06:23:28.670Z,17.37
2018-12-06T06:25:56.162Z,18.33
2018-12-06T06:28:23.655Z,18.03
2018-12-06T06:30:51.355Z,18.73
2018-12-06T06:33:19.030Z,17.03
2018-12-06T06:35:46.531Z,18.77
2018-12-06T06:38:14.032Z,17.73
2018-12-06T06:40:41.490Z,17.70
2018-12-06T06:43:08.976Z,18.53
2018-12-06T06:45:36.453Z,18.60
2018-12-06T06:48:03.950Z,18.47
2018-12-06T06:50:31.398Z,18.53
2018-12-06T06:52:58.884Z,19.33
2018-12-06T06:55:27.762Z,18.70
2018-12-06T06:57:55.275Z,18.70
2018-12-06T07:00:22.753Z,18.53
2018-12-06T07:02:50.257Z,18.70
2018-12-06T07:05:17.734Z,19.20
2018-12-06T07:07:45.262Z,18.27
2018-12-06T07:10:12.738Z,18.17
2018-12-06T07:12:40.257Z,17.70
2018-12-06T07:15:07.741Z,17.77
2018-12-06T07:17:35.228Z,17.27
2018-12-06T07:20:02.689Z,17.90
2018-12-06T07:22:30.328Z,18.07
2018-12-06T07:24:57.779Z,17.63
2018-12-06T07:27:25.246Z,17.73
2018-12-06T07:29:52.727Z,17.93
2018-12-06T07:34:58.924Z,19.53
2018-12-06T07:37:26.462Z,18.10
2018-12-06T07:39:53.938Z,18.13
2018-12-06T07:42:21.406Z,18.30
2018-12-06T07:44:48.890Z,17.87
2018-12-06T07:47:16.396Z,19.17
2018-12-06T07:49:43.876Z,18.00
2018-12-06T07:52:11.356Z,17.53
2018-12-06T07:54:38.829Z,17.87
2018-12-06T07:57:06.277Z,18.97
2018-12-06T07:59:33.764Z,19.20
2018-12-06T08:02:01.250Z,18.73
2018-12-06T08:04:28.768Z,19.50
2018-12-06T08:06:56.270Z,19.07
2018-12-06T08:09:23.782Z,19.20
2018-12-06T08:11:51.249Z,17.50
2018-12-06T08:14:18.757Z,18.50
2018-12-06T08:16:46.251Z,20.27
2018-12-06T08:19:14.013Z,18.80
2018-12-06T08:21:41.741Z,18.27
2018-12-06T08:24:09.228Z,19.50
2018-12-06T08:26:36.703Z,19.07
2018-12-06T08:29:04.161Z,17.80
2018-12-06T08:31:31.659Z,18.23
2018-12-06T08:34:05.916Z,18.57
2018-12-06T08:36:28.670Z,18.37
2018-12-06T08:38:56.125Z,18.50
2018-12-06T08:41:23.625Z,18.53
2018-12-06T08:43:51.130Z,17.97
2018-12-06T08:46:18.645Z,18.83
2018-12-06T08:48:46.099Z,17.37
2018-12-06T08:51:13.574Z,17.90
2018-12-06T08:53:41.045Z,18.97
2018-12-06T08:56:08.525Z,19.17
2018-12-06T08:58:35.998Z,19.53
2018-12-06T09:01:03.479Z,19.83
2018-12-06T09:03:30.975Z,19.10
2018-12-06T09:05:58.499Z,19.60
2018-12-06T09:08:25.967Z,18.33
2018-12-06T09:10:53.490Z,19.07
2018-12-06T09:13:21.000Z,17.13
2018-12-06T09:15:48.499Z,18.47
2018-12-06T09:18:15.962Z,17.80
2018-12-06T09:20:43.450Z,17.77
2018-12-06T09:23:10.917Z,19.30
2018-12-06T09:25:38.413Z,17.30
2018-12-06T09:28:05.879Z,16.47
2018-12-06T09:30:33.366Z,17.27
2018-12-06T09:33:00.843Z,16.20
2018-12-06T09:35:28.295Z,16.23
2018-12-06T09:37:55.793Z,24.23
2018-12-06T09:40:23.353Z,28.70
2018-12-06T09:42:50.829Z,20.37
2018-12-06T09:45:18.282Z,16.90
2018-12-06T09:47:45.780Z,16.43
2018-12-06T09:50:13.240Z,16.77
2018-12-06T09:52:40.768Z,16.43
2018-12-06T09:55:08.250Z,16.40
2018-12-06T09:57:35.734Z,16.80
2018-12-06T10:00:05.036Z,17.13
2018-12-06T10:02:32.509Z,16.87
2018-12-06T10:04:59.986Z,18.00
2018-12-06T10:07:27.451Z,18.47
2018-12-06T10:09:54.933Z,18.23
2018-12-06T10:12:22.420Z,19.17
2018-12-06T10:14:49.907Z,17.50
2018-12-06T10:17:17.380Z,18.33
2018-12-06T10:19:44.839Z,18.53
2018-12-06T10:22:12.363Z,17.57
2018-12-06T10:24:40.821Z,19.27
2018-12-06T10:27:08.299Z,19.47
2018-12-06T10:29:35.814Z,19.53
2018-12-06T10:32:03.289Z,20.53
2018-12-06T10:34:30.756Z,19.20
2018-12-06T10:36:58.243Z,19.00
2018-12-06T10:39:25.791Z,19.23
2018-12-06T10:41:53.391Z,18.43
2018-12-06T10:44:27.638Z,17.83
2018-12-06T10:46:55.172Z,19.47
2018-12-06T10:49:22.629Z,18.13
2018-12-06T10:51:50.166Z,18.13
2018-12-06T10:54:17.661Z,17.93
2018-12-06T10:56:45.203Z,17.80
2018-12-06T10:59:12.802Z,17.73
2018-12-06T11:01:45.990Z,18.73
2018-12-06T11:04:13.473Z,18.50
2018-12-06T11:06:40.930Z,18.30
2018-12-06T11:09:08.416Z,18.27
2018-12-06T11:11:35.886Z,18.90
2018-12-06T11:14:03.591Z,18.83
2018-12-06T11:16:31.046Z,19.63
2018-12-06T11:18:58.552Z,18.87
2018-12-06T11:21:26.028Z,18.77
2018-12-06T11:23:53.508Z,18.50
2018-12-06T11:26:20.970Z,18.10
2018-12-06T11:28:48.457Z,16.37
2018-12-06T11:31:16.079Z,17.07
2018-12-06T11:33:43.546Z,18.40
2018-12-06T11:36:11.024Z,17.67
2018-12-06T11:38:38.494Z,18.93
2018-12-06T11:41:05.980Z,17.80
2018-12-06T11:43:33.458Z,18.77
2018-12-06T11:46:00.987Z,17.77
2018-12-06T11:48:28.448Z,18.30
2018-12-06T11:50:56.005Z,20.60
2018-12-06T11:53:23.519Z,19.57
2018-12-06T11:55:51.016Z,19.90
2018-12-06T11:58:18.463Z,20.37
2018-12-06T12:00:46.242Z,18.87
2018-12-06T12:03:13.724Z,18.23
2018-12-06T12:05:41.213Z,18.23
2018-12-06T12:08:08.672Z,18.33
2018-12-06T12:10:36.158Z,17.57
2018-12-06T12:13:03.629Z,18.13
2018-12-06T12:15:31.124Z,18.30
2018-12-06T12:17:58.574Z,18.63
2018-12-06T12:20:26.054Z,18.90
2018-12-06T12:22:53.525Z,19.17
2018-12-06T12:25:21.005Z,18.13
2018-12-06T12:27:48.506Z,17.80
2018-12-06T12:30:15.991Z,18.23
2018-12-06T12:32:43.492Z,18.37
2018-12-06T12:35:10.978Z,19.07
2018-12-06T12:37:38.461Z,16.83
2018-12-06T12:40:08.410Z,18.47
2018-12-06T12:42:35.910Z,17.67
2018-12-06T12:45:03.634Z,18.37
2018-12-06T12:47:31.118Z,17.47
2018-12-06T12:49:58.754Z,18.07
2018-12-06T12:52:26.234Z,19.07
2018-12-06T12:54:53.762Z,18.23
2018-12-06T12:57:21.272Z,18.50
2018-12-06T12:59:48.753Z,17.53
2018-12-06T13:02:16.219Z,25.30
2018-12-06T13:04:43.729Z,19.33
2018-12-06T13:07:11.574Z,18.63
2018-12-06T13:09:39.038Z,17.73
2018-12-06T13:12:06.526Z,19.33
2018-12-06T13:14:33.994Z,19.53
2018-12-06T13:17:01.519Z,18.10
2018-12-06T13:19:29.015Z,18.80
2018-12-06T13:21:56.526Z,19.13
2018-12-06T13:24:24.100Z,19.10
2018-12-06T13:26:51.594Z,20.03
2018-12-06T13:29:19.096Z,19.27
2018-12-06T13:31:46.612Z,19.17
2018-12-06T13:34:14.125Z,19.00
2018-12-06T13:36:41.684Z,18.87
2018-12-06T13:39:09.142Z,18.63
2018-12-06T13:41:36.632Z,19.83
2018-12-06T13:44:04.126Z,18.93
2018-12-06T13:46:31.602Z,19.13
2018-12-06T13:48:59.166Z,17.90
2018-12-06T13:51:26.725Z,17.53
2018-12-06T13:53:54.222Z,18.10
2018-12-06T13:56:21.716Z,17.60
2018-12-06T13:58:49.198Z,18.07
2018-12-06T14:01:17.009Z,18.00
2018-12-06T14:03:44.778Z,18.00
2018-12-06T14:06:12.306Z,19.13
2018-12-06T14:08:39.819Z,17.87
2018-12-06T14:11:07.325Z,18.50
2018-12-06T14:13:34.836Z,18.07
2018-12-06T14:16:09.928Z,16.90
2018-12-06T14:18:31.799Z,19.47
2018-12-06T14:20:59.344Z,20.80
2018-12-06T14:23:26.862Z,19.50
2018-12-06T14:25:54.346Z,18.50
2018-12-06T14:28:21.888Z,17.57
2018-12-06T14:30:49.354Z,18.83
2018-12-06T14:33:16.851Z,19.03
2018-12-06T14:35:44.336Z,18.00
2018-12-06T14:38:11.797Z,18.33
2018-12-06T14:40:39.300Z,18.10
2018-12-06T14:43:07.050Z,17.93
2018-12-06T14:45:34.784Z,17.67
2018-12-06T14:48:02.270Z,18.47
2018-12-06T14:50:29.761Z,17.63
2018-12-06T14:52:57.230Z,18.50
2018-12-06T14:55:24.721Z,18.13
2018-12-06T14:57:52.201Z,17.77
2018-12-06T15:00:19.700Z,18.23
2018-12-06T15:02:47.837Z,18.83
2018-12-06T15:05:15.327Z,17.97
2018-12-06T15:07:42.789Z,17.70
2018-12-06T15:10:10.269Z,17.20
2018-12-06T15:12:37.743Z,18.93
2018-12-06T15:15:05.230Z,18.50
2018-12-06T15:17:32.709Z,19.37
2018-12-06T15:20:00.222Z,18.60
2018-12-06T15:22:27.703Z,19.27
2018-12-06T15:24:55.439Z,18.47
2018-12-06T15:27:23.055Z,18.10
2018-12-06T15:29:50.702Z,18.37
2018-12-06T15:32:18.191Z,20.30
2018-12-06T15:34:45.674Z,20.67
2018-12-06T15:37:13.214Z,20.03
2018-12-06T15:39:40.700Z,20.40
2018-12-06T15:42:08.341Z,18.40
2018-12-06T15:44:35.890Z,20.53
2018-12-06T15:47:03.369Z,18.37
2018-12-06T15:49:30.849Z,18.80
2018-12-06T15:51:58.336Z,20.03
2018-12-06T15:54:25.801Z,19.60
2018-12-06T15:56:53.312Z,19.20
2018-12-06T15:59:21.610Z,18.93
2018-12-06T16:01:49.108Z,18.70
2018-12-06T16:04:16.575Z,19.57
2018-12-06T16:06:44.085Z,19.80
2018-12-06T16:09:11.563Z,20.43
2018-12-06T16:11:39.042Z,19.37
2018-12-06T16:14:06.529Z,21.33
2018-12-06T16:16:34.010Z,21.87
2018-12-06T16:19:01.475Z,21.67
2018-12-06T16:21:28.971Z,23.53
2018-12-06T16:23:56.464Z,21.27
2018-12-06T16:26:23.943Z,21.90
2018-12-06T16:28:51.444Z,21.93
2018-12-06T16:31:18.959Z,23.07
2018-12-06T16:33:46.474Z,21.83
2018-12-06T16:36:13.951Z,21.97
2018-12-06T16:38:41.435Z,22.03
2018-12-06T16:41:08.885Z,21.63
2018-12-06T16:43:36.374Z,21.63
2018-12-06T16:46:03.844Z,21.97
2018-12-06T16:48:31.346Z,22.17
2018-12-06T16:50:58.817Z,21.37
2018-12-06T16:53:26.408Z,22.00
2018-12-06T16:55:53.875Z,21.97
2018-12-06T16:58:21.405Z,21.97
2018-12-06T17:00:48.888Z,21.80
2018-12-06T17:03:16.377Z,22.53
2018-12-06T17:05:43.857Z,22.70
2018-12-06T17:08:11.350Z,22.67
2018-12-06T17:10:38.814Z,21.67
2018-12-06T17:13:06.333Z,22.40
2018-12-06T17:15:33.828Z,22.77
2018-12-06T17:18:01.334Z,23.20
2018-12-06T17:20:28.810Z,23.13
2018-12-06T17:22:56.300Z,21.80
2018-12-06T17:25:23.774Z,22.97
2018-12-06T17:27:51.313Z,22.23
2018-12-06T17:30:19.158Z,22.37
2018-12-06T17:32:47.071Z,22.37
2018-12-06T17:35:15.396Z,23.17
2018-12-06T17:37:42.884Z,22.00
2018-12-06T17:40:10.388Z,22.93
2018-12-06T17:42:37.967Z,20.27
2018-12-06T17:45:06.760Z,23.43
2018-12-06T17:47:34.236Z,22.67
2018-12-06T17:50:01.775Z,22.73
2018-12-06T17:52:29.248Z,24.23
2018-12-06T17:54:56.739Z,23.13
2018-12-06T17:57:24.207Z,23.30
2018-12-06T17:59:51.702Z,23.23
2018-12-06T18:02:19.178Z,22.10
2018-12-06T18:04:46.673Z,23.23
2018-12-06T18:07:14.154Z,20.67
2018-12-06T18:09:41.791Z,20.47
2018-12-06T18:12:09.290Z,21.40
2018-12-06T18:14:36.831Z,21.10
2018-12-06T18:17:04.326Z,20.60
2018-12-06T18:19:31.813Z,19.13
2018-12-06T18:21:59.409Z,21.20
2018-12-06T18:24:26.976Z,20.60
2018-12-06T18:26:54.455Z,19.50
2018-12-06T18:29:21.916Z,18.37
2018-12-06T18:31:49.441Z,19.37
2018-12-06T18:34:16.894Z,19.27
2018-12-06T18:36:44.384Z,20.40
2018-12-06T18:39:11.872Z,19.73
2018-12-06T18:41:39.369Z,20.73
2018-12-06T18:44:06.866Z,18.37
2018-12-06T18:46:34.387Z,19.80
2018-12-06T18:49:01.874Z,18.43
2018-12-06T18:51:29.401Z,24.40
2018-12-06T18:53:56.885Z,21.63
2018-12-06T18:56:24.528Z,21.87
2018-12-06T18:58:52.015Z,20.43
2018-12-06T19:01:19.501Z,20.43
2018-12-06T19:03:46.994Z,18.83
2018-12-06T19:06:14.475Z,17.23
2018-12-06T19:08:41.981Z,17.63
2018-12-06T19:11:09.757Z,17.87
2018-12-06T19:13:37.490Z,16.87
2018-12-06T19:16:05.081Z,17.83
2018-12-06T19:18:32.574Z,15.77
2018-12-06T19:21:00.077Z,16.50
2018-12-06T19:23:27.645Z,17.43
2018-12-06T19:25:55.234Z,18.27
2018-12-06T19:28:22.711Z,15.57
2018-12-06T19:30:50.621Z,16.67
2018-12-06T19:33:18.091Z,14.23
2018-12-06T19:35:45.573Z,14.07
2018-12-06T19:38:13.062Z,13.43
2018-12-06T19:40:40.533Z,13.90
2018-12-06T19:43:08.030Z,13.87
2018-12-06T19:45:35.502Z,13.17
2018-12-06T19:48:03.017Z,11.20
2018-12-06T19:50:30.491Z,13.97
2018-12-06T19:52:58.022Z,19.87
2018-12-06T19:55:25.506Z,19.00
2018-12-06T19:57:53.007Z,18.17
2018-12-06T20:00:20.518Z,17.07
2018-12-06T20:02:47.993Z,17.67
2018-12-06T20:05:15.473Z,18.90
2018-12-06T20:07:42.976Z,17.87
2018-12-06T20:10:10.466Z,24.60
2018-12-06T20:12:37.943Z,25.37
2018-12-06T20:15:05.419Z,30.60
2018-12-06T20:17:32.938Z,26.23
2018-12-06T20:20:00.431Z,23.20
2018-12-06T20:22:27.941Z,23.53
2018-12-06T20:24:56.354Z,23.83
2018-12-06T20:27:23.828Z,24.03
2018-12-06T20:29:51.330Z,21.40
2018-12-06T20:32:18.805Z,20.37
2018-12-06T20:34:46.309Z,20.83
2018-12-06T20:37:13.856Z,18.27
2018-12-06T20:39:41.358Z,19.60
2018-12-06T20:42:08.821Z,15.17
2018-12-06T20:44:36.364Z,13.43
2018-12-06T20:47:03.947Z,11.37
2018-12-06T20:49:31.475Z,11.70
2018-12-06T20:51:58.939Z,11.00
2018-12-06T20:54:26.420Z,12.90
2018-12-06T20:56:55.125Z,13.60
2018-12-06T20:59:22.826Z,14.50
2018-12-06T21:01:50.349Z,12.80
2018-12-06T21:04:17.844Z,15.77
2018-12-06T21:06:45.334Z,15.63
2018-12-06T21:09:12.835Z,18.07
2018-12-06T21:11:40.295Z,18.63
2018-12-06T21:14:07.795Z,18.93
2018-12-06T21:16:35.743Z,18.00
2018-12-06T21:19:03.435Z,18.67
2018-12-06T21:21:32.254Z,17.40
2018-12-06T21:23:59.741Z,18.30
2018-12-06T21:26:27.214Z,16.90
2018-12-06T21:28:54.685Z,16.73
2018-12-06T21:31:22.200Z,17.30
2018-12-06T21:33:49.687Z,17.03
2018-12-06T21:36:17.165Z,17.33
2018-12-06T21:38:44.738Z,16.07
2018-12-06T21:41:12.254Z,17.63
2018-12-06T21:43:39.878Z,17.13
2018-12-06T21:46:07.361Z,17.80
2018-12-06T21:48:34.840Z,17.20
2018-12-06T21:51:02.344Z,17.30
2018-12-06T21:53:29.802Z,18.10
2018-12-06T21:55:57.325Z,18.00
2018-12-06T21:58:24.920Z,17.43
2018-12-06T22:00:52.443Z,18.30
2018-12-06T22:03:19.909Z,17.77
2018-12-06T22:05:47.422Z,16.87
2018-12-06T22:08:14.917Z,17.17
2018-12-06T22:10:44.488Z,16.67
2018-12-06T22:13:12.034Z,16.63
2018-12-06T22:15:39.546Z,17.67
2018-12-06T22:18:07.075Z,16.93
2018-12-06T22:20:34.628Z,17.03
2018-12-06T22:23:02.403Z,17.03
2018-12-06T22:25:30.751Z,15.00
2018-12-06T22:27:58.383Z,15.00
2018-12-06T22:30:25.887Z,13.10
2018-12-06T22:32:53.759Z,10.43
2018-12-06T22:35:21.415Z,7.43
2018-12-06T22:37:48.915Z,6.67
2018-12-06T22:40:16.369Z,6.13
2018-12-06T22:42:43.906Z,5.77
2018-12-06T22:45:23.251Z,5.53
2018-12-06T22:47:50.778Z,5.90
2018-12-06T22:50:18.277Z,5.60
2018-12-06T22:52:45.847Z,4.80
2018-12-06T22:55:13.342Z,4.80
2018-12-06T22:57:42.252Z,4.23
2018-12-06T23:00:09.723Z,4.30
2018-12-06T23:02:37.203Z,4.13
2018-12-06T23:05:04.695Z,3.80
2018-12-06T23:07:32.211Z,26.10
2018-12-06T23:09:59.694Z,15.47
2018-12-06T23:12:27.284Z,4.23
2018-12-06T23:14:54.749Z,3.63
2018-12-06T23:17:22.230Z,3.30
2018-12-06T23:19:49.716Z,3.10
2018-12-06T23:22:17.206Z,2.70
2018-12-06T23:24:44.695Z,2.63
2018-12-06T23:27:12.172Z,2.93
2018-12-06T23:29:39.674Z,2.73
2018-12-06T23:32:07.382Z,2.80
2018-12-06T23:34:34.966Z,2.60
2018-12-06T23:37:02.462Z,2.80
2018-12-06T23:39:29.965Z,2.60
2018-12-06T23:41:57.447Z,2.47
2018-12-06T23:44:24.928Z,2.23
2018-12-06T23:46:52.459Z,2.17
2018-12-06T23:49:19.944Z,1.90
2018-12-06T23:51:47.414Z,1.80
2018-12-06T23:54:14.910Z,1.90
2018-12-06T23:56:42.425Z,1.90
2018-12-06T23:59:09.907Z,2.20
